This is the latest recevied weather packets stored in our database for station/object G8SIB-9. If no packets are shown the sender has not sent any weather packets the latest 10 day(s).
| Time | Temp. | Humidity | Pressure | Rain* | Wind** | Luminosity | Snow |
|---|---|---|---|---|---|---|---|
| 1777986953 | 17.78° C | 40% | 1008.9 hPa | 0 mm | - | - | - |
| 1777986353 | 18.33° C | 39% | 1009 hPa | 0 mm | - | - | - |
| 1777985752 | 18.33° C | 38% | 1009 hPa | 0 mm | - | - | - |
| 1777985152 | 18.89° C | 38% | 1008.9 hPa | 0 mm | - | - | - |
| 1777984551 | 19.44° C | 37% | 1008.9 hPa | 0 mm | - | - | - |
| 1777983951 | 18.89° C | 38% | 1008.9 hPa | 0 mm | - | - | - |
| 1777983350 | 18.33° C | 36% | 1009 hPa | 0 mm | - | - | - |
| 1777982750 | 19.44° C | 34% | 1009 hPa | 0 mm | - | - | - |
| 1777982149 | 19.44° C | 36% | 1009 hPa | 0 mm | - | - | - |
| 1777981548 | 20° C | 34% | 1009.1 hPa | 0 mm | - | - | - |
| 1777980948 | 19.44° C | 36% | 1009.2 hPa | 0 mm | - | - | - |
| 1777980346 | 19.44° C | 35% | 1009.3 hPa | 0 mm | - | - | - |
| 1777979745 | 19.44° C | 36% | 1009.4 hPa | 0 mm | - | - | - |
| 1777979144 | 18.89° C | 37% | 1009.4 hPa | 0 mm | - | - | - |
| 1777978543 | 18.89° C | 39% | 1009.5 hPa | 0 mm | - | - | - |
| 1777977942 | 18.89° C | 40% | 1009.5 hPa | 0 mm | - | - | - |
| 1777977341 | 18.33° C | 41% | 1009.6 hPa | 0 mm | - | - | - |
| 1777976740 | 17.78° C | 42% | 1009.7 hPa | 0 mm | - | - | - |
| 1777976139 | 16.11° C | 45% | 1009.9 hPa | 0 mm | - | - | - |
| 1777975539 | 16.67° C | 46% | 1009.9 hPa | 0 mm | - | - | - |
| 1777974937 | 17.22° C | 44% | 1009.9 hPa | 0 mm | - | - | - |
| 1777974337 | 17.22° C | 45% | 1010 hPa | 0 mm | - | - | - |
| 1777973736 | 16.67° C | 48% | 1010.1 hPa | 0 mm | - | - | - |
| 1777973136 | 16.11° C | 49% | 1010.1 hPa | 0 mm | - | - | - |
| 1777972535 | 16.67° C | 48% | 1010 hPa | 0 mm | - | - | - |
* Rain latest hour (hover to see other rain measurements)
** Current wind speed in m/s (hover to see current wind gust speed)